Cook, MN (55723)

11:16 AM CST on November 17, 2017 (GMT -0600)
Cook Municipal | | Change Station
Active Advisory: Special Statement

Elev 1325 ft 47.82 °N, 92.69 °W | Updated 44 seconds ago

Mostly Cloudy
Mostly Cloudy
32 °F
Feels Like 25 °F
N
8
Wind Variable Wind from West
Gusts 18 mph

Today
High -- | Low -- °F
--% Chance of Precip.
Yesterday
High -- | Low -- °F
Precip. -- in
Pressure 29.61 in
Visibility 10.0 miles
Clouds Scattered Clouds 1000 ft
Mostly Cloudy 4600 ft
Mostly Cloudy 5000 ft
Windchill 25 °F
Dew Point 28 °F
Humidity 87%
Rainfall 0.03 in
Snow Depth Not available.
7:20 AM 4:31 PM
Waning Crescent, 1% visible
METAR KCQM 171716Z AUTO 27007G16KT 10SM SCT010 BKN046 BKN050 00/M02 A2961 RMK AO2
Pressure 29.61 in
Visibility 10.0 miles
Clouds Scattered Clouds 1000 ft
Mostly Cloudy 4600 ft
Mostly Cloudy 5000 ft
Windchill 25 °F
Dew Point 28 °F
Humidity 87%
Rainfall 0.03 in
Snow Depth Not available.
7:20 AM 4:31 PM
Waning Crescent, 1% visible
METAR KCQM 171716Z AUTO 27007G16KT 10SM SCT010 BKN046 BKN050 00/M02 A2961 RMK AO2

Get Your Daily Forecast Email!

Thanks for signing up!

Be on the lookout for a verification email in your inbox.

You'll start receiving severe weather alerts in your inbox..

×

10-Day Weather Forecast

Almanac

Astronomy

Nov. 17, 2017 Rise Set
Actual Time
Civil Twilight
Nautical Twilight
Astronomical Twilight
Moon
Length of Visible Light
Length of Day
Tomorrow will be .
, % of the Moon is Illuminated

Today's Extremes

State Highs State Lows

Community

WunderPhotos

Category 6

Welcome to Category 6. This is the collective home for Weather Underground's featured writeups by Dr. Jeff Masters (right), Bob Henson (left), Chris Burt, and other regular contributors.

Nearby

Air Quality

  Air Quality AQ Index Pollutant
Not available.

Snow Depth

Station Depth Elevation

Earthquake Activity

City Distance Mag. Time & Date
Minimum magnitude displayed is 2.5.

Coastal Water Temperatures

Place Temperature

Stations

Nearby Weather Stations

Station Location Temp. Windchill Dew Point Humidity Wind Precip. Elev Updated Type
                   

Watches & Warnings

Special Statement
Issued: 10:32 AM CST Nov. 17, 2017 – National Weather Service

... Slippery roads across the Northland to continue this morning
and early afternoon...

A wintry mixture of snow, freezing drizzle, rain, and freezing
rain is falling over portions of northern Minnesota and northwest
Wisconsin this morning. This is producing some slick roads,
especially by Cook, Effie, and little Fork in northern Minnesota,
and Pine Lake and Fifield in northwest Wisconsin. If you must
travel on area roads today, be sure to allow extra time to reach
your destination, and allow plenty of space between you and other
traffic.


Jts